Time;durP1;ratioP1;P1;durP2;ratioP2;P2;SDS_P1;SDS_P2;PMS_P1;PMS_P2;Temp;Humidity;BMP_temperature;BMP_pressure;BME280_temperature;BME280_humidity;BME280_pressure;Samples;Min_cycle;Max_cycle;Signal;HPM_P1;HPM_P2
2022/10/25 00:01:51;;;;;;;18.83;8.30;;;11.20;99.90;;;;;;4900427;29;20292;-87
2022/10/25 00:04:16;;;;;;;14.32;7.95;;;11.20;99.90;;;;;;4900508;29;20247;-87
2022/10/25 00:06:42;;;;;;;17.73;7.72;;;11.20;99.90;;;;;;4900231;29;20547;-88
2022/10/25 00:09:09;;;;;;;16.73;8.55;;;11.20;99.90;;;;;;4916218;29;20188;-88
2022/10/25 00:11:34;;;;;;;18.75;8.68;;;11.20;99.90;;;;;;4917097;29;20619;-87
2022/10/25 00:14:03;;;;;;;15.48;7.85;;;11.20;99.90;;;;;;4900228;29;20244;-89
2022/10/25 00:16:31;;;;;;;16.55;7.22;;;11.20;99.90;;;;;;4917489;29;20650;-87
2022/10/25 00:18:57;;;;;;;15.15;7.30;;;11.20;99.90;;;;;;4919446;29;20191;-88
2022/10/25 00:21:24;;;;;;;19.83;7.65;;;11.30;99.90;;;;;;4902696;29;20180;-87
2022/10/25 00:23:50;;;;;;;17.23;7.65;;;11.30;99.90;;;;;;4916693;29;20253;-88
2022/10/25 00:26:17;;;;;;;18.90;8.55;;;11.30;99.90;;;;;;4916051;29;20204;-88
2022/10/25 00:28:43;;;;;;;22.02;8.88;;;11.40;99.90;;;;;;4900321;29;20184;-87
2022/10/25 00:31:11;;;;;;;18.00;9.00;;;11.40;99.90;;;;;;4916989;29;20685;-86
2022/10/25 00:33:38;;;;;;;18.55;8.23;;;11.40;99.90;;;;;;4915857;29;20223;-86
2022/10/25 00:36:15;;;;;;;14.68;8.27;;;11.40;99.90;;;;;;4900096;29;20222;-87
2022/10/25 00:38:42;;;;;;;21.35;9.02;;;11.40;99.90;;;;;;4916026;29;20176;-87
2022/10/25 00:41:08;;;;;;;16.85;8.55;;;11.40;99.90;;;;;;4900177;29;20188;-87
2022/10/25 00:43:43;;;;;;;17.83;8.48;;;11.40;99.90;;;;;;4915993;29;20226;-87
2022/10/25 00:46:20;;;;;;;16.38;8.82;;;11.40;99.90;;;;;;4916182;29;20586;-87
2022/10/25 00:48:54;;;;;;;22.42;9.25;;;11.40;99.90;;;;;;4915232;29;20274;-88
2022/10/25 00:51:27;;;;;;;17.60;9.20;;;11.40;99.90;;;;;;4927202;29;20708;-87
2022/10/25 00:53:53;;;;;;;18.00;8.60;;;11.40;99.90;;;;;;4935868;29;20263;-87
2022/10/25 00:56:24;;;;;;;17.45;8.32;;;11.40;99.90;;;;;;4919173;29;20208;-87
2022/10/25 00:58:54;;;;;;;14.77;8.32;;;11.50;99.90;;;;;;4935896;29;20640;-87
2022/10/25 01:01:21;;;;;;;13.85;7.88;;;11.40;99.90;;;;;;4934793;29;20223;-87
2022/10/25 01:03:51;;;;;;;17.13;8.35;;;10.50;99.90;;;;;;4918471;29;20220;-88
2022/10/25 01:06:28;;;;;;;19.08;9.10;;;11.50;99.90;;;;;;4934769;29;20258;-88
2022/10/25 01:08:56;;;;;;;16.83;8.60;;;11.50;99.90;;;;;;4916803;29;20200;-88
2022/10/25 01:11:21;;;;;;;22.20;9.07;;;11.50;99.90;;;;;;4919444;29;20681;-88
2022/10/25 01:13:48;;;;;;;20.52;9.05;;;;;;;;;;4918147;29;20232;-90
2022/10/25 01:16:31;;;;;;;17.17;9.00;;;11.50;99.90;;;;;;4919488;29;20272;-88
2022/10/25 01:19:08;;;;;;;16.13;8.70;;;11.50;99.90;;;;;;4934144;29;20208;-87
2022/10/25 01:21:45;;;;;;;18.17;8.02;;;11.40;99.90;;;;;;4920151;29;20176;-87
2022/10/25 01:24:48;;;;;;;16.75;7.93;;;11.40;99.90;;;;;;4918900;29;20225;-88
2022/10/25 01:27:39;;;;;;;23.80;9.65;;;11.40;99.90;;;;;;4908160;29;20247;-87
2022/10/25 01:30:10;;;;;;;25.27;8.90;;;11.50;99.90;;;;;;4920216;29;20240;-87
2022/10/25 01:32:51;;;;;;;19.65;10.45;;;11.50;99.90;;;;;;4926390;29;20185;-87
2022/10/25 01:35:43;;;;;;;17.95;8.88;;;11.50;99.90;;;;;;4920518;29;20240;-87
2022/10/25 01:38:19;;;;;;;18.15;7.95;;;11.50;99.90;;;;;;4934625;29;20185;-88
2022/10/25 01:40:45;;;;;;;16.77;8.38;;;11.50;99.90;;;;;;4919831;29;20181;-88
2022/10/25 01:43:21;;;;;;;17.92;7.93;;;11.50;99.90;;;;;;4921126;29;20216;-88
2022/10/25 01:46:06;;;;;;;18.73;8.32;;;11.50;99.90;;;;;;4925782;29;20188;-88
2022/10/25 01:48:37;;;;;;;17.92;9.35;;;11.50;99.90;;;;;;4929507;29;20207;-88
2022/10/25 01:51:12;;;;;;;17.02;9.07;;;11.60;99.90;;;;;;4935685;29;20169;-88
2022/10/25 01:53:50;;;;;;;19.38;9.02;;;11.60;99.90;;;;;;4947228;29;20188;-88
2022/10/25 01:56:33;;;;;;;18.20;8.80;;;11.60;99.90;;;;;;4920146;29;20180;-88
2022/10/25 01:59:04;;;;;;;13.77;8.48;;;11.60;99.90;;;;;;4935336;29;20177;-88
2022/10/25 02:01:33;;;;;;;22.00;8.93;;;11.70;99.90;;;;;;4927133;29;20208;-88
2022/10/25 02:04:05;;;;;;;23.38;9.35;;;11.60;99.90;;;;;;4933626;29;20220;-89
2022/10/25 02:06:39;;;;;;;20.20;8.38;;;11.60;99.90;;;;;;4951914;29;20203;-88
2022/10/25 02:09:31;;;;;;;15.68;8.18;;;11.60;99.90;;;;;;4935284;29;20188;-89
2022/10/25 02:11:58;;;;;;;17.63;8.52;;;11.60;99.90;;;;;;4919141;29;20634;-91
2022/10/25 02:14:36;;;;;;;16.17;8.35;;;11.70;99.90;;;;;;4854259;29;1395408;-88
2022/10/25 02:17:10;;;;;;;18.33;8.73;;;11.80;99.90;;;;;;4901613;29;20177;-88
2022/10/25 02:19:46;;;;;;;19.45;9.07;;;11.70;99.90;;;;;;4901333;29;20178;-87
2022/10/25 02:22:14;;;;;;;16.98;9.35;;;11.70;99.90;;;;;;4899577;29;20177;-88
2022/10/25 02:24:44;;;;;;;18.48;8.20;;;11.70;99.90;;;;;;4899375;29;20244;-87
2022/10/25 02:27:11;;;;;;;19.27;8.50;;;11.70;99.90;;;;;;4899374;29;20186;-87
2022/10/25 02:29:38;;;;;;;20.38;9.05;;;11.70;99.90;;;;;;4899583;29;20184;-87
2022/10/25 02:32:04;;;;;;;23.70;10.77;;;11.80;99.90;;;;;;4899048;29;20192;-87
2022/10/25 02:34:31;;;;;;;26.38;10.38;;;11.80;99.90;;;;;;4883843;29;20189;-87
2022/10/25 02:36:57;;;;;;;18.45;10.15;;;11.80;99.90;;;;;;4915141;29;20189;-87
2022/10/25 02:39:26;;;;;;;22.58;9.68;;;11.80;99.90;;;;;;4899245;29;20241;-87
2022/10/25 02:41:51;;;;;;;19.02;8.80;;;11.90;99.90;;;;;;4899322;29;20231;-86
2022/10/25 02:44:17;;;;;;;21.15;8.48;;;11.80;99.90;;;;;;4898945;29;20315;-87
2022/10/25 02:46:42;;;;;;;19.48;9.57;;;11.90;99.90;;;;;;4914947;29;20185;-87
2022/10/25 02:49:08;;;;;;;13.20;7.88;;;11.90;99.90;;;;;;4904683;29;20197;-87
2022/10/25 02:51:34;;;;;;;17.70;9.13;;;11.00;99.90;;;;;;4899566;29;20204;-87
2022/10/25 02:54:01;;;;;;;18.38;9.00;;;11.90;99.90;;;;;;4899091;29;20607;-87
2022/10/25 02:56:27;;;;;;;15.85;7.43;;;11.90;99.90;;;;;;4899280;29;20257;-87
2022/10/25 02:58:55;;;;;;;19.50;8.00;;;11.90;99.90;;;;;;4898824;29;20189;-86
2022/10/25 03:01:21;;;;;;;17.20;7.88;;;12.00;99.90;;;;;;4914219;29;20181;-86
2022/10/25 03:03:47;;;;;;;20.25;8.25;;;12.10;99.90;;;;;;4898635;29;20268;-86
2022/10/25 03:06:13;;;;;;;20.25;9.30;;;12.20;99.90;;;;;;4914544;29;20193;-87
2022/10/25 03:08:40;;;;;;;16.77;8.23;;;12.10;99.90;;;;;;4883377;29;20710;-87
2022/10/25 03:11:08;;;;;;;16.13;7.38;;;12.10;99.90;;;;;;4914401;29;20193;-89
2022/10/25 03:13:35;;;;;;;18.55;8.43;;;12.00;99.90;;;;;;4914133;29;20240;-87
2022/10/25 03:16:00;;;;;;;17.73;8.02;;;12.00;99.90;;;;;;4900249;29;20181;-87
2022/10/25 03:18:26;;;;;;;21.63;8.32;;;12.00;99.90;;;;;;4898752;29;20514;-87
2022/10/25 03:20:55;;;;;;;15.70;8.13;;;12.00;99.90;;;;;;4898663;29;20192;-87
2022/10/25 03:23:21;;;;;;;17.67;8.32;;;12.10;99.90;;;;;;4899385;29;20217;-87
2022/10/25 03:25:51;;;;;;;17.65;9.32;;;12.10;99.90;;;;;;4898415;29;20651;-87
2022/10/25 03:28:16;;;;;;;19.02;8.35;;;12.10;99.90;;;;;;4913873;29;20181;-87
2022/10/25 03:30:42;;;;;;;16.00;8.02;;;12.10;99.90;;;;;;4914995;29;20189;-87
2022/10/25 03:33:08;;;;;;;17.98;7.85;;;;;;;;;;4898106;29;20686;-87
2022/10/25 03:35:34;;;;;;;20.40;9.32;;;12.10;99.90;;;;;;4899779;29;20207;-87
2022/10/25 03:38:00;;;;;;;18.17;8.82;;;12.20;99.90;;;;;;4914161;29;20703;-87
2022/10/25 03:40:26;;;;;;;18.60;8.68;;;12.30;99.90;;;;;;4900156;29;20185;-86
2022/10/25 03:42:51;;;;;;;17.25;8.98;;;12.30;99.90;;;;;;4904953;29;20235;-85
2022/10/25 03:45:17;;;;;;;19.65;10.18;;;12.40;99.90;;;;;;4920427;29;20221;-90
2022/10/25 03:47:43;;;;;;;20.17;9.73;;;12.40;99.90;;;;;;4937638;29;20181;-87
2022/10/25 03:50:09;;;;;;;18.00;9.38;;;12.50;99.90;;;;;;4906173;29;20593;-88
2022/10/25 03:52:35;;;;;;;20.00;9.07;;;12.50;99.90;;;;;;4898904;29;20639;-88
2022/10/25 03:55:01;;;;;;;18.85;9.50;;;12.50;99.90;;;;;;4926757;29;20192;-87
2022/10/25 03:57:27;;;;;;;21.00;9.73;;;12.60;99.90;;;;;;4944157;28;20161;-88
2022/10/25 03:59:53;;;;;;;17.17;10.43;;;12.60;99.90;;;;;;4933454;29;20253;-87
2022/10/25 04:02:18;;;;;;;23.95;10.80;;;12.70;99.90;;;;;;4929254;29;20617;-88
2022/10/25 04:04:44;;;;;;;16.83;9.63;;;12.70;99.90;;;;;;4884330;29;20185;-88
2022/10/25 04:07:10;;;;;;;23.52;10.18;;;12.70;99.90;;;;;;4913539;29;20189;-87
2022/10/25 04:09:35;;;;;;;22.05;9.38;;;12.70;99.90;;;;;;4897230;29;20189;-88
2022/10/25 04:12:01;;;;;;;18.13;9.48;;;;;;;;;;4906524;29;20272;-87
2022/10/25 04:14:27;;;;;;;21.85;10.30;;;12.70;99.90;;;;;;4912922;29;20283;-86
2022/10/25 04:16:53;;;;;;;23.00;9.55;;;12.60;99.90;;;;;;4899225;29;20185;-87
2022/10/25 04:19:18;;;;;;;23.38;9.77;;;12.60;99.90;;;;;;4905035;29;20189;-87
2022/10/25 04:21:47;;;;;;;19.90;10.50;;;12.60;99.90;;;;;;4910009;29;20189;-87
2022/10/25 04:24:12;;;;;;;20.90;10.98;;;12.60;99.90;;;;;;4915701;29;20620;-86
2022/10/25 04:26:38;;;;;;;18.40;9.65;;;;;;;;;;4920432;29;20212;-87
2022/10/25 04:29:05;;;;;;;27.70;9.75;;;12.50;99.90;;;;;;4915186;29;20283;-88
2022/10/25 04:31:34;;;;;;;19.30;10.15;;;12.50;99.90;;;;;;4928588;29;20172;-87
2022/10/25 04:33:59;;;;;;;18.38;9.88;;;12.50;99.90;;;;;;4901662;29;20189;-88
2022/10/25 04:36:28;;;;;;;21.27;10.02;;;12.40;99.90;;;;;;4881695;29;20200;-88
2022/10/25 04:38:55;;;;;;;18.33;9.90;;;12.40;99.90;;;;;;4917996;29;20188;-88
2022/10/25 04:41:20;;;;;;;23.17;9.32;;;12.90;99.90;;;;;;4898234;29;20212;-88
2022/10/25 04:43:47;;;;;;;25.38;9.88;;;12.40;99.90;;;;;;4896741;29;20299;-88
2022/10/25 04:46:14;;;;;;;16.63;9.85;;;12.40;99.90;;;;;;4927869;29;20185;-88
2022/10/25 04:48:41;;;;;;;20.00;9.98;;;12.30;99.90;;;;;;4929825;29;20726;-87
2022/10/25 04:51:07;;;;;;;18.25;9.27;;;12.60;99.90;;;;;;4923066;29;20252;-87
2022/10/25 04:53:36;;;;;;;19.88;10.82;;;12.30;99.90;;;;;;4911907;29;20185;-87
2022/10/25 04:56:13;;;;;;;20.58;9.65;;;12.30;99.90;;;;;;4899035;29;20657;-88
2022/10/25 04:58:42;;;;;;;26.02;12.10;;;12.30;99.90;;;;;;4921294;29;20524;-88
2022/10/25 05:01:13;;;;;;;21.77;11.10;;;12.30;99.90;;;;;;4910295;29;20201;-88
2022/10/25 05:03:49;;;;;;;20.67;10.57;;;12.50;99.90;;;;;;4924797;29;20208;-88
2022/10/25 05:06:27;;;;;;;21.05;9.98;;;12.60;99.90;;;;;;4931366;29;20200;-88
2022/10/25 05:08:55;;;;;;;20.60;10.50;;;12.30;99.90;;;;;;4923504;29;20196;-87
2022/10/25 05:11:32;;;;;;;21.23;11.25;;;12.40;99.90;;;;;;4914773;29;20596;-86
2022/10/25 05:14:00;;;;;;;21.83;9.68;;;12.40;99.90;;;;;;4940074;29;20270;-88
2022/10/25 05:16:28;;;;;;;22.20;9.10;;;12.90;99.90;;;;;;4918901;29;20184;-88
2022/10/25 05:18:59;;;;;;;19.65;10.13;;;13.00;99.90;;;;;;4919143;29;20244;-90
2022/10/25 05:21:52;;;;;;;21.65;10.40;;;11.80;99.90;;;;;;4908276;29;20201;-93
2022/10/25 05:24:18;;;;;;;24.95;11.38;;;12.50;99.90;;;;;;4940391;29;20357;-90
2022/10/25 05:26:43;;;;;;;20.55;9.45;;;13.00;99.90;;;;;;4921451;29;20669;-89
2022/10/25 05:29:12;;;;;;;19.98;9.50;;;12.50;99.90;;;;;;4925174;29;20241;-89
2022/10/25 05:31:55;;;;;;;21.02;9.70;;;13.20;99.90;;;;;;4928856;29;20193;-91
2022/10/25 05:34:21;;;;;;;20.98;10.07;;;12.80;99.90;;;;;;4924941;29;20172;-94
2022/10/25 05:36:47;;;;;;;19.10;10.25;;;10.40;99.90;;;;;;4951558;28;20184;-94
2022/10/25 05:39:16;;;;;;;27.13;11.70;;;12.50;99.90;;;;;;4940459;29;20199;-92
2022/10/25 05:41:46;;;;;;;20.35;9.90;;;13.00;99.90;;;;;;4941283;29;20179;-91
2022/10/25 05:44:13;;;;;;;25.90;11.90;;;12.70;99.90;;;;;;4909620;29;20670;-89
2022/10/25 05:46:50;;;;;;;22.27;10.48;;;12.60;99.90;;;;;;4918468;29;20188;-92
2022/10/25 05:49:32;;;;;;;21.42;9.57;;;12.60;99.90;;;;;;4920407;29;20216;-90
2022/10/25 05:51:58;;;;;;;18.05;10.02;;;13.00;99.90;;;;;;4919018;29;20184;-91
2022/10/25 05:54:25;;;;;;;20.45;10.27;;;;;;;;;;4909156;29;20230;-89
2022/10/25 05:57:14;;;;;;;27.98;10.88;;;12.60;99.90;;;;;;4934074;29;20188;-90
2022/10/25 05:59:59;;;;;;;19.23;10.10;;;12.50;99.90;;;;;;4915915;29;20684;-90
2022/10/25 06:02:30;;;;;;;20.90;10.18;;;12.50;99.90;;;;;;4914230;29;20236;-90
2022/10/25 06:19:15;;;;;;;21.75;10.82;;;12.70;99.90;;;;;;4907628;29;20246;-91
2022/10/25 06:21:45;;;;;;;20.15;10.15;;;12.50;99.90;;;;;;4909237;29;20204;-91
2022/10/25 06:24:14;;;;;;;22.08;9.10;;;12.80;99.90;;;;;;4916162;29;20232;-90
2022/10/25 06:26:57;;;;;;;30.15;13.00;;;10.90;99.90;;;;;;4932979;29;20652;-91
2022/10/25 06:29:28;;;;;;;33.40;13.43;;;12.40;99.90;;;;;;4938480;29;20186;-91
2022/10/25 06:32:07;;;;;;;24.90;11.00;;;12.60;99.90;;;;;;4938694;29;20238;-91
2022/10/25 06:34:41;;;;;;;25.85;11.25;;;12.60;99.90;;;;;;4897653;29;20192;-91
2022/10/25 06:37:18;;;;;;;23.00;11.35;;;12.60;99.90;;;;;;4908916;29;20203;-91
2022/10/25 06:39:46;;;;;;;23.48;11.02;;;10.70;99.90;;;;;;4936560;29;20793;-89
2022/10/25 06:42:12;;;;;;;22.23;10.18;;;12.90;99.90;;;;;;4919385;29;20633;-88
2022/10/25 06:44:40;;;;;;;20.08;10.30;;;12.70;99.90;;;;;;4936018;29;20180;-89
2022/10/25 06:47:06;;;;;;;22.80;11.10;;;12.60;99.90;;;;;;4920107;29;20260;-89
2022/10/25 06:49:34;;;;;;;21.17;10.02;;;;;;;;;;4935337;29;20191;-88
2022/10/25 06:52:03;;;;;;;25.83;11.85;;;12.70;99.90;;;;;;4920467;29;20180;-89
2022/10/25 06:54:30;;;;;;;22.13;10.45;;;12.60;99.90;;;;;;4936437;29;20702;-88
2022/10/25 06:57:09;;;;;;;;;;;;;;;;;;;;;
2022/10/25 06:59:40;;;;;;;22.40;10.43;;;12.70;99.90;;;;;;4922682;29;20188;-92
2022/10/25 07:02:18;;;;;;;18.70;10.02;;;13.10;99.90;;;;;;4905653;29;20179;-91
2022/10/25 07:05:20;;;;;;;21.67;11.05;;;12.60;99.90;;;;;;4917950;29;20195;-92
2022/10/25 07:07:46;;;;;;;28.50;11.52;;;13.50;99.90;;;;;;4887483;29;20236;-90
2022/10/25 07:10:14;;;;;;;22.73;10.70;;;;;;;;;;4920676;29;20187;-90
2022/10/25 07:12:45;;;;;;;18.40;9.93;;;12.60;99.90;;;;;;4921239;29;20626;-91
2022/10/25 07:15:41;;;;;;;19.75;9.23;;;12.40;99.90;;;;;;4923234;29;20195;-91
2022/10/25 07:18:39;;;;;;;;;;;;;;;;;;;;;
2022/10/25 07:22:01;;;;;;;;;;;;;;;;;;;;;
2022/10/25 07:24:30;;;;;;;22.48;10.95;;;13.80;99.90;;;;;;4918416;29;20696;-90
2022/10/25 07:26:55;;;;;;;21.65;10.13;;;13.10;99.90;;;;;;4935737;29;20180;-90
2022/10/25 07:29:26;;;;;;;22.10;10.00;;;12.90;99.90;;;;;;4936230;29;20184;-89
2022/10/25 07:32:05;;;;;;;;;;;;;;;;;;;;;
2022/10/25 07:34:45;;;;;;;19.10;10.00;;;12.90;99.90;;;;;;4921750;29;20176;-91
2022/10/25 07:37:52;;;;;;;24.55;10.13;;;12.80;99.90;;;;;;4935905;29;20187;-91
2022/10/25 07:40:50;;;;;;;31.73;12.32;;;13.10;99.90;;;;;;4912951;29;20196;-92
2022/10/25 07:46:18;;;;;;;27.80;10.38;;;13.10;99.90;;;;;;4860171;29;20203;-92
2022/10/25 07:48:44;;;;;;;23.33;10.30;;;13.10;99.90;;;;;;4871408;29;20180;-94
2022/10/25 07:51:46;;;;;;;;;;;;;;;;;;;;;
2022/10/25 07:54:27;;;;;;;22.83;11.95;;;13.40;99.90;;;;;;4912592;29;20212;-92
2022/10/25 07:56:53;;;;;;;23.85;11.13;;;13.80;99.90;;;;;;4908710;29;20251;-89
2022/10/25 07:59:19;;;;;;;34.20;12.95;;;13.70;99.90;;;;;;4902811;29;20180;-91
2022/10/25 08:02:08;;;;;;;24.23;11.32;;;14.00;99.90;;;;;;4902676;29;20228;-92
2022/10/25 08:04:50;;;;;;;26.65;9.95;;;13.90;99.90;;;;;;4902462;29;20224;-93
2022/10/25 08:07:26;;;;;;;21.98;10.30;;;14.50;99.90;;;;;;4901536;29;20207;-91
2022/10/25 08:10:11;;;;;;;;;;;;;;;;;;;;;
2022/10/25 08:12:59;;;;;;;20.40;9.32;;;14.00;99.90;;;;;;4925314;29;20704;-93
2022/10/25 08:23:05;;;;;;;20.70;9.25;;;14.20;99.90;;;;;;4841993;29;20170;-92
2022/10/25 08:25:39;;;;;;;18.55;9.00;;;14.50;99.90;;;;;;4845770;29;20197;-94
2022/10/25 08:28:17;;;;;;;;;;;;;;;;;;;;;
2022/10/25 08:33:53;;;;;;;22.33;9.50;;;14.10;99.90;;;;;;5110435;23;20240;-94
2022/10/25 08:40:00;;;;;;;;;;;;;;;;;;;;;
2022/10/25 08:51:58;;;;;;;13.30;7.60;;;12.00;99.90;;;;;;4945140;28;20602;-96
2022/10/25 08:54:33;;;;;;;21.20;9.32;;;14.50;99.90;;;;;;4916133;29;20187;-93
2022/10/25 08:57:32;;;;;;;;;;;;;;;;;;;;;
2022/10/25 09:00:34;;;;;;;;;;;;;;;;;;;;;
2022/10/25 09:03:27;;;;;;;;;;;;;;;;;;;;;
2022/10/25 09:06:22;;;;;;;23.67;10.15;;;14.70;99.90;;;;;;4920170;29;20586;-93
2022/10/25 09:09:28;;;;;;;16.38;8.98;;;14.90;99.90;;;;;;4903011;29;20185;-93
2022/10/25 09:12:19;;;;;;;;;;;;;;;;;;;;;
2022/10/25 09:15:06;;;;;;;16.13;7.93;;;15.10;99.90;;;;;;4918028;29;20641;-93
2022/10/25 09:18:06;;;;;;;;;;;;;;;;;;;;;
2022/10/25 09:24:29;;;;;;;;;;;;;;;;;;;;;
2022/10/25 09:27:17;;;;;;;16.95;7.22;;;15.30;99.90;;;;;;4891595;29;20669;-94
2022/10/25 09:30:00;;;;;;;14.38;6.43;;;15.80;99.90;;;;;;4902246;29;20192;-92
2022/10/25 09:33:03;;;;;;;13.90;6.15;;;15.30;99.90;;;;;;4904212;29;20192;-91
2022/10/25 09:59:05;;;;;;;;;;;;;;;;;;;;;
2022/10/25 10:28:57;;;;;;;6.25;3.42;;;15.70;99.90;;;;;;4831923;29;20199;-91
2022/10/25 10:31:32;;;;;;;4.68;3.38;;;15.80;99.90;;;;;;4888414;29;20279;-90
2022/10/25 10:34:48;;;;;;;;;;;;;;;;;;;;;
2022/10/25 10:38:27;;;;;;;6.78;3.10;;;16.10;99.90;;;;;;4914906;29;20279;-95
2022/10/25 10:41:29;;;;;;;;;;;;;;;;;;;;;
2022/10/25 10:58:13;;;;;;;7.35;3.65;;;15.50;99.90;;;;;;4925159;29;20188;-96
2022/10/25 11:04:05;;;;;;;7.40;3.50;;;17.20;99.90;;;;;;4923892;29;20218;-93
2022/10/25 11:47:40;;;;;;;4.32;2.90;;;16.30;99.90;;;;;;4859606;29;20190;-94
2022/10/25 11:50:42;;;;;;;6.93;3.10;;;14.80;99.90;;;;;;4895323;29;20189;-94
2022/10/25 11:53:27;;;;;;;5.55;3.90;;;16.80;99.90;;;;;;4904177;29;20279;-91
2022/10/25 12:07:06;;;;;;;6.40;4.03;;;15.80;99.90;;;;;;4860849;29;20198;-92
2022/10/25 12:20:19;;;;;;;7.75;3.80;;;16.20;99.90;;;;;;4849293;29;20434;-94
2022/10/25 12:27:33;;;;;;;5.40;4.05;;;16.00;99.90;;;;;;4813407;29;20196;-92
2022/10/25 12:39:56;;;;;;;5.97;3.97;;;17.40;99.90;;;;;;4956965;28;20257;-90
2022/10/25 12:43:49;;;;;;;;;;;;;;;;;;;;;
2022/10/25 12:47:01;;;;;;;5.93;4.40;;;21.20;99.90;;;;;;4892940;29;20277;-93
2022/10/25 12:50:27;;;;;;;7.75;4.32;;;17.80;99.90;;;;;;4897763;29;20192;-92
2022/10/25 12:53:22;;;;;;;8.65;4.53;;;17.90;99.90;;;;;;4892296;29;20203;-93
2022/10/25 13:04:06;;;;;;;;;;;;;;;;;;;;;
2022/10/25 13:07:12;;;;;;;7.93;4.13;;;17.40;99.90;;;;;;4921319;29;20191;-93
2022/10/25 13:09:44;;;;;;;6.45;4.35;;;16.90;99.90;;;;;;4903485;29;20196;-92
2022/10/25 13:12:30;;;;;;;8.73;3.97;;;16.20;99.90;;;;;;4904976;29;20177;-90
2022/10/25 13:14:58;;;;;;;7.43;4.47;;;17.10;99.90;;;;;;4921806;29;20185;-89
2022/10/25 13:17:24;;;;;;;6.00;3.85;;;16.90;99.90;;;;;;4906718;29;20184;-93
2022/10/25 13:20:59;;;;;;;5.50;3.83;;;16.70;99.90;;;;;;4921435;29;20280;-93
2022/10/25 13:23:48;;;;;;;6.13;3.17;;;16.20;99.90;;;;;;4922729;29;20226;-91
2022/10/25 13:26:24;;;;;;;5.50;3.63;;;16.60;99.90;;;;;;4919696;29;20216;-90
2022/10/25 13:29:02;;;;;;;5.35;3.42;;;16.50;99.90;;;;;;4903797;29;20244;-91
2022/10/25 13:45:36;;;;;;;5.60;3.58;;;16.40;99.90;;;;;;4900760;29;20237;-93
2022/10/25 13:48:14;;;;;;;5.68;3.30;;;14.30;99.90;;;;;;4898980;29;20284;-91
2022/10/25 13:50:50;;;;;;;10.98;4.53;;;15.90;99.90;;;;;;4883563;29;20173;-89
2022/10/25 13:53:43;;;;;;;;;;;;;;;;;;;;;
2022/10/25 13:56:39;;;;;;;7.05;3.47;;;16.10;99.90;;;;;;4908945;29;20618;-90
2022/10/25 13:59:58;;;;;;;8.25;3.88;;;16.30;99.90;;;;;;4932958;29;20188;-90
2022/10/25 14:02:26;;;;;;;6.82;3.97;;;16.00;99.90;;;;;;4938387;29;20187;-89
2022/10/25 14:04:54;;;;;;;8.15;3.53;;;16.20;99.90;;;;;;4938809;29;20204;-89
2022/10/25 14:08:06;;;;;;;;;;;;;;;;;;;;;
2022/10/25 14:11:00;;;;;;;12.95;5.15;;;16.00;99.90;;;;;;4919758;29;20181;-93
2022/10/25 14:13:35;;;;;;;8.80;3.88;;;18.20;99.90;;;;;;4922972;29;20193;-90
2022/10/25 14:26:14;;;;;;;8.52;3.63;;;16.20;99.90;;;;;;4825860;29;20186;-90
2022/10/25 14:29:08;;;;;;;8.60;4.53;;;16.20;99.90;;;;;;4824928;29;20248;-92
2022/10/25 14:41:57;;;;;;;5.40;3.67;;;16.00;99.90;;;;;;4925798;29;20203;-91
2022/10/25 14:48:07;;;;;;;5.82;3.65;;;15.80;99.90;;;;;;4909369;29;20240;-91
2022/10/25 14:50:54;;;;;;;5.75;3.95;;;15.70;99.90;;;;;;4902041;29;20200;-91
2022/10/25 14:56:26;;;;;;;7.97;3.78;;;15.50;99.90;;;;;;4901699;29;20193;-90
2022/10/25 14:58:56;;;;;;;14.93;4.20;;;15.60;99.90;;;;;;4910618;29;20200;-90
2022/10/25 15:01:25;;;;;;;7.28;4.45;;;15.50;99.90;;;;;;4899638;29;20192;-91
2022/10/25 15:03:57;;;;;;;15.90;6.18;;;16.50;99.90;;;;;;4920301;29;20193;-93
2022/10/25 15:06:28;;;;;;;31.10;18.08;;;15.50;99.90;;;;;;4935789;29;20199;-92
2022/10/25 15:09:25;;;;;;;;;;;;;;;;;;;;;
2022/10/25 15:12:09;;;;;;;13.13;9.98;;;15.80;99.90;;;;;;4936967;29;20198;-94
2022/10/25 15:15:02;;;;;;;11.75;6.70;;;15.50;99.90;;;;;;4922464;29;20211;-90
2022/10/25 15:18:07;;;;;;;;;;;;;;;;;;;;;
2022/10/25 15:20:47;;;;;;;9.73;5.85;;;13.50;99.90;;;;;;4938468;29;20207;-95
2022/10/25 15:27:39;;;;;;;10.57;7.47;;;14.40;99.90;;;;;;4916386;29;20205;-93
2022/10/25 15:33:38;;;;;;;10.90;5.82;;;14.90;99.90;;;;;;4901331;29;20220;-88
2022/10/25 15:47:53;;;;;;;;;;;;;;;;;;;;;
2022/10/25 16:15:14;;;;;;;;;;;;;;;;;;;;;
2022/10/25 16:38:33;;;;;;;11.38;4.90;;;14.70;99.90;;;;;;4858729;29;20231;-94
2022/10/25 16:41:28;;;;;;;7.40;2.78;;;11.80;99.90;;;;;;4827754;29;20230;-92
2022/10/25 16:51:27;;;;;;;5.25;3.15;;;14.60;99.90;;;;;;4809238;29;20196;-92
2022/10/25 16:54:00;;;;;;;7.55;3.72;;;14.80;99.90;;;;;;4858381;29;20205;-92
2022/10/25 16:56:30;;;;;;;3.75;2.00;;;13.70;99.90;;;;;;4862838;29;20218;-92
2022/10/25 16:59:05;;;;;;;5.40;2.17;;;12.30;99.90;;;;;;4874965;29;20195;-91
2022/10/25 17:01:35;;;;;;;3.40;1.70;;;13.80;99.90;;;;;;4910257;29;20191;-91
2022/10/25 17:04:02;;;;;;;3.92;2.28;;;13.80;99.90;;;;;;4909707;29;20275;-90
2022/10/25 17:06:37;;;;;;;3.53;1.75;;;14.10;99.90;;;;;;4904732;29;20329;-91
2022/10/25 17:09:06;;;;;;;6.72;3.15;;;13.60;99.90;;;;;;4907123;29;20340;-91
2022/10/25 17:11:35;;;;;;;7.00;2.72;;;13.00;99.90;;;;;;4908964;29;20201;-89
2022/10/25 17:14:01;;;;;;;6.45;2.80;;;13.70;99.90;;;;;;4912410;29;20181;-89
2022/10/25 17:17:07;;;;;;;;;;;;;;;;;;;;;
2022/10/25 17:19:56;;;;;;;7.45;3.63;;;13.30;99.90;;;;;;4904738;29;20289;-93
2022/10/25 17:22:28;;;;;;;4.97;3.17;;;12.70;99.90;;;;;;4902211;29;20213;-92
2022/10/25 17:25:05;;;;;;;19.52;9.95;;;13.50;99.90;;;;;;4914128;29;20330;-89
2022/10/25 17:27:38;;;;;;;7.25;3.90;;;13.30;99.90;;;;;;4892233;29;20280;-91
2022/10/25 17:30:15;;;;;;;4.85;2.63;;;13.70;99.90;;;;;;4890416;29;20240;-93
2022/10/25 17:33:32;;;;;;;;;;;;;;;;;;;;;
2022/10/25 17:35:50;;;;;;;4.00;2.55;;;12.20;99.90;;;;;;4903423;29;20216;-91
2022/10/25 17:38:53;;;;;;;7.72;2.97;;;13.30;99.90;;;;;;4902167;29;20174;-93
2022/10/25 17:42:14;;;;;;;14.27;5.40;;;13.60;99.90;;;;;;4899413;29;20748;-91
2022/10/25 17:44:56;;;;;;;5.60;3.42;;;13.10;99.90;;;;;;4905726;29;20565;-92
2022/10/25 17:47:41;;;;;;;;;;;;;;;;;;;;;
2022/10/25 17:50:44;;;;;;;4.28;2.50;;;13.60;99.90;;;;;;4898622;29;20177;-94
2022/10/25 17:56:50;;;;;;;;;;;;;;;;;;;;;
2022/10/25 17:59:56;;;;;;;;;;;;;;;;;;;;;
2022/10/25 18:02:49;;;;;;;;;;;;;;;;;;;;;
2022/10/25 18:05:21;;;;;;;4.97;2.67;;;13.10;99.90;;;;;;4904001;29;20207;-92
2022/10/25 18:08:16;;;;;;;5.45;3.63;;;11.50;99.90;;;;;;4906488;29;20195;-91
2022/10/25 18:10:42;;;;;;;8.50;4.07;;;12.70;99.90;;;;;;4912082;29;20196;-92
2022/10/25 18:13:08;;;;;;;8.43;3.38;;;;;;;;;;4928808;29;20195;-90
2022/10/25 18:16:03;;;;;;;;;;;;;;;;;;;;;
2022/10/25 18:18:41;;;;;;;7.28;4.35;;;13.00;99.90;;;;;;4912869;29;20260;-89
2022/10/25 18:21:16;;;;;;;16.60;7.78;;;13.00;99.90;;;;;;4914656;29;20196;-91
2022/10/25 18:23:52;;;;;;;8.48;5.18;;;12.60;99.90;;;;;;4907762;29;20208;-91
2022/10/25 18:26:30;;;;;;;;;;;;;;;;;;;;;
2022/10/25 18:29:08;;;;;;;8.60;4.63;;;12.10;99.90;;;;;;4910979;29;20177;-91
2022/10/25 18:31:38;;;;;;;8.73;5.75;;;12.50;99.90;;;;;;4902411;29;20182;-91
2022/10/25 18:34:18;;;;;;;12.40;7.40;;;12.40;99.90;;;;;;4904375;29;20187;-92
2022/10/25 18:36:47;;;;;;;9.48;5.75;;;12.40;99.90;;;;;;4885116;29;20205;-90
2022/10/25 18:39:33;;;;;;;12.57;5.85;;;12.50;99.90;;;;;;4909698;29;20267;-92
2022/10/25 18:42:01;;;;;;;12.57;6.97;;;12.40;99.90;;;;;;4921362;29;20276;-95
2022/10/25 18:44:57;;;;;;;;;;;;;;;;;;;;;
2022/10/25 18:54:30;;;;;;;;;;;;;;;;;;;;;
2022/10/25 18:57:53;;;;;;;;;;;;;;;;;;;;;
2022/10/25 19:06:51;;;;;;;32.92;12.35;;;12.00;99.90;;;;;;4901184;29;20289;-93
2022/10/25 19:09:27;;;;;;;;;;;;;;;;;;;;;
2022/10/25 19:15:32;;;;;;;17.80;8.05;;;12.60;99.90;;;;;;4806205;29;20574;-93
2022/10/25 19:19:07;;;;;;;13.88;6.95;;;12.40;99.90;;;;;;4904934;29;20211;-92
2022/10/25 19:21:50;;;;;;;;;;;;;;;;;;;;;
2022/10/25 19:24:24;;;;;;;15.43;8.35;;;12.10;99.90;;;;;;4913985;29;20570;-92
2022/10/25 19:27:31;;;;;;;;;;;;;;;;;;;;;
2022/10/25 19:30:34;;;;;;;14.32;8.07;;;12.30;99.90;;;;;;4861413;29;20711;-93
2022/10/25 19:33:28;;;;;;;11.73;6.93;;;12.30;99.90;;;;;;4840892;29;20203;-91
2022/10/25 19:39:33;;;;;;;13.88;6.10;;;12.40;99.90;;;;;;4903923;29;20189;-94
2022/10/25 19:42:16;;;;;;;14.15;6.43;;;12.40;99.90;;;;;;4912101;29;20193;-92
2022/10/25 19:44:44;;;;;;;13.48;6.80;;;12.90;99.90;;;;;;4895633;29;20213;-92
2022/10/25 19:47:33;;;;;;;11.10;6.30;;;12.80;99.90;;;;;;4899650;29;20193;-90
2022/10/25 19:50:12;;;;;;;11.70;5.95;;;12.80;99.90;;;;;;4920347;29;20724;-92
2022/10/25 19:52:46;;;;;;;12.18;6.72;;;12.40;99.90;;;;;;4924539;29;20196;-91
2022/10/25 19:55:11;;;;;;;10.05;6.03;;;12.90;99.90;;;;;;4903760;29;20224;-91